createdAt,value
2022-11-05T00:05:44.150Z,47.25
2022-11-05T00:08:39.081Z,53.38
2022-11-05T00:11:05.977Z,62.42
2022-11-05T00:13:55.633Z,58.17
2022-11-05T00:16:41.172Z,59.63
2022-11-05T00:19:08.328Z,50.05
2022-11-05T00:21:55.412Z,58.35
2022-11-05T00:24:41.345Z,54.88
2022-11-05T00:27:09.109Z,53.97
2022-11-05T00:29:36.080Z,50.47
2022-11-05T00:32:02.950Z,54.08
2022-11-05T00:34:29.872Z,53.10
2022-11-05T00:36:57.030Z,53.25
2022-11-05T00:39:23.883Z,57.00
2022-11-05T00:42:10.671Z,61.38
2022-11-05T00:44:56.337Z,57.78
2022-11-05T00:47:41.950Z,50.88
2022-11-05T00:50:10.786Z,49.75
2022-11-05T00:52:57.237Z,48.70
2022-11-05T00:55:42.037Z,49.22
2022-11-05T00:58:19.990Z,50.75
2022-11-05T01:00:52.791Z,55.38
2022-11-05T01:03:21.833Z,49.33
2022-11-05T01:05:56.639Z,55.33
2022-11-05T01:08:25.894Z,49.83
2022-11-05T01:10:58.304Z,44.13
2022-11-05T01:13:29.770Z,46.70
2022-11-05T01:16:17.897Z,50.47
2022-11-05T01:18:44.762Z,46.25
2022-11-05T01:21:15.957Z,47.13
2022-11-05T01:23:42.968Z,51.28
2022-11-05T01:26:09.872Z,45.83
2022-11-05T01:28:36.911Z,47.67
2022-11-05T01:31:04.270Z,44.28
2022-11-05T01:33:31.394Z,42.65
2022-11-05T01:35:58.828Z,46.53
2022-11-05T01:38:25.750Z,43.75
2022-11-05T01:40:53.298Z,48.85
2022-11-05T01:43:22.237Z,49.00
2022-11-05T01:45:57.710Z,46.10
2022-11-05T01:48:26.015Z,43.15
2022-11-05T01:51:05.227Z,45.15
2022-11-05T01:53:50.792Z,40.38
2022-11-05T01:56:33.789Z,43.80
2022-11-05T01:59:06.284Z,56.67
2022-11-05T02:01:33.562Z,46.22
2022-11-05T02:04:03.643Z,47.08
2022-11-05T02:06:32.945Z,45.00
2022-11-05T02:09:19.752Z,47.60
2022-11-05T02:11:46.935Z,42.35
2022-11-05T02:14:13.792Z,45.60
2022-11-05T02:16:46.604Z,37.67
2022-11-05T02:19:21.925Z,49.90
2022-11-05T02:22:19.659Z,48.55
2022-11-05T02:24:58.339Z,42.17
2022-11-05T02:28:03.032Z,42.90
2022-11-05T02:30:48.411Z,46.75
2022-11-05T02:33:31.519Z,48.88
2022-11-05T02:36:52.490Z,39.40
2022-11-05T02:39:40.352Z,46.25
2022-11-05T02:42:30.786Z,47.38
2022-11-05T02:45:15.788Z,39.22
2022-11-05T02:47:46.160Z,42.47
2022-11-05T02:50:26.349Z,47.75
2022-11-05T02:53:23.653Z,36.45
2022-11-05T02:56:09.035Z,44.05
2022-11-05T02:58:36.033Z,44.15
2022-11-05T03:01:09.060Z,54.25
2022-11-05T03:06:18.855Z,44.30
2022-11-05T03:09:16.891Z,43.72
2022-11-05T03:11:52.177Z,42.13
2022-11-05T03:14:36.998Z,42.00
2022-11-05T03:17:43.182Z,44.40
2022-11-05T03:20:30.277Z,42.22
2022-11-05T03:23:14.878Z,46.83
2022-11-05T03:25:50.269Z,44.60
2022-11-05T03:28:18.735Z,50.55
2022-11-05T03:30:45.965Z,40.95
2022-11-05T03:33:18.161Z,48.88
2022-11-05T03:35:54.255Z,41.93
2022-11-05T03:38:28.890Z,42.67
2022-11-05T03:40:59.081Z,46.58
2022-11-05T03:43:29.872Z,38.40
2022-11-05T03:46:00.065Z,37.33
2022-11-05T03:48:28.807Z,34.55
2022-11-05T03:51:17.834Z,34.47
2022-11-05T03:53:50.248Z,41.97
2022-11-05T03:56:24.238Z,39.20
2022-11-05T03:58:57.559Z,34.92
2022-11-05T04:01:25.902Z,39.85
2022-11-05T04:03:53.271Z,39.08
2022-11-05T04:06:39.169Z,33.88
2022-11-05T04:09:24.648Z,50.42
2022-11-05T04:12:10.074Z,37.65
2022-11-05T04:14:36.897Z,44.90
2022-11-05T04:17:07.019Z,41.20
2022-11-05T04:19:53.720Z,39.72
2022-11-05T04:22:39.615Z,39.05
2022-11-05T04:25:06.722Z,40.63
2022-11-05T04:27:33.594Z,43.15
2022-11-05T04:30:18.794Z,38.92
2022-11-05T04:33:17.277Z,37.78
2022-11-05T04:35:46.244Z,30.00
2022-11-05T04:38:15.604Z,49.60
2022-11-05T04:40:43.175Z,26.38
2022-11-05T04:43:16.502Z,35.30
2022-11-05T04:45:44.018Z,32.28
2022-11-05T04:48:11.434Z,36.92
2022-11-05T04:50:38.541Z,37.17
2022-11-05T04:53:05.411Z,29.05
2022-11-05T04:55:32.474Z,36.97
2022-11-05T04:57:59.635Z,32.83
2022-11-05T05:00:26.979Z,27.63
2022-11-05T05:02:54.396Z,31.50
2022-11-05T05:05:22.879Z,27.45
2022-11-05T05:07:52.794Z,27.65
2022-11-05T05:10:19.756Z,33.30
2022-11-05T05:12:46.763Z,28.13
2022-11-05T05:15:13.644Z,29.70
2022-11-05T05:17:40.576Z,30.17
2022-11-05T05:20:26.411Z,30.08
2022-11-05T05:22:54.607Z,31.25
2022-11-05T05:25:21.945Z,33.35
2022-11-05T05:27:48.857Z,35.13
2022-11-05T05:30:15.984Z,30.80
2022-11-05T05:32:42.946Z,30.27
2022-11-05T05:35:10.161Z,35.28
2022-11-05T05:37:37.036Z,30.02
2022-11-05T05:40:04.535Z,36.70
2022-11-05T05:42:31.584Z,32.90
2022-11-05T05:44:58.580Z,28.70
2022-11-05T05:47:25.449Z,33.13
2022-11-05T05:49:52.694Z,29.48
2022-11-05T05:52:19.646Z,28.38
2022-11-05T05:54:46.553Z,29.83
2022-11-05T05:57:13.696Z,28.88
2022-11-05T05:59:40.604Z,34.92
2022-11-05T06:02:07.649Z,30.77
2022-11-05T06:04:34.669Z,31.85
2022-11-05T06:07:01.570Z,39.17
2022-11-05T06:09:28.692Z,34.75
2022-11-05T06:11:55.697Z,34.88
2022-11-05T06:14:22.550Z,32.35
2022-11-05T06:16:49.466Z,33.97
2022-11-05T06:19:16.372Z,29.38
2022-11-05T06:21:48.374Z,37.28
2022-11-05T06:24:15.336Z,37.38
2022-11-05T06:26:43.415Z,38.60
2022-11-05T06:29:10.726Z,31.67
2022-11-05T06:31:37.631Z,28.73
2022-11-05T06:34:04.529Z,32.92
2022-11-05T06:36:31.366Z,32.22
2022-11-05T06:38:58.226Z,39.17
2022-11-05T06:41:25.177Z,38.90
2022-11-05T06:43:52.011Z,40.67
2022-11-05T06:46:19.789Z,39.58
2022-11-05T06:48:48.175Z,32.35
2022-11-05T06:51:15.517Z,31.13
2022-11-05T06:53:42.452Z,35.47
2022-11-05T06:56:09.979Z,41.47
2022-11-05T06:58:36.991Z,33.95
2022-11-05T07:01:05.900Z,37.05
2022-11-05T07:03:32.782Z,32.58
2022-11-05T07:06:00.841Z,34.30
2022-11-05T07:08:32.307Z,41.95
2022-11-05T07:10:59.649Z,39.13
2022-11-05T07:13:26.539Z,34.25
2022-11-05T07:15:53.503Z,42.33
2022-11-05T07:18:20.492Z,39.55
2022-11-05T07:20:47.406Z,40.35
2022-11-05T07:23:15.266Z,32.85
2022-11-05T07:25:43.272Z,38.53
2022-11-05T07:28:10.942Z,37.53
2022-11-05T07:30:38.251Z,52.72
2022-11-05T07:33:05.103Z,48.83
2022-11-05T07:35:32.028Z,42.38
2022-11-05T07:37:58.949Z,40.97
2022-11-05T07:40:28.208Z,47.33
2022-11-05T07:43:00.367Z,42.13
2022-11-05T07:45:28.571Z,38.43
2022-11-05T07:48:00.668Z,48.30
2022-11-05T07:50:32.683Z,37.30
2022-11-05T07:53:03.149Z,47.63
2022-11-05T07:55:31.414Z,41.05
2022-11-05T07:57:58.591Z,44.20
2022-11-05T08:00:26.387Z,45.40
2022-11-05T08:03:08.517Z,40.42
2022-11-05T08:05:38.160Z,40.22
2022-11-05T08:08:06.186Z,43.78
2022-11-05T08:10:34.287Z,39.13
2022-11-05T08:13:01.652Z,39.03
2022-11-05T08:15:28.892Z,39.22
2022-11-05T08:17:59.835Z,34.45
2022-11-05T08:20:27.290Z,38.33
2022-11-05T08:22:54.970Z,35.35
2022-11-05T08:25:22.101Z,41.53
2022-11-05T08:27:50.220Z,38.00
2022-11-05T08:30:17.115Z,37.47
2022-11-05T08:32:43.993Z,43.67
2022-11-05T08:35:10.887Z,32.65
2022-11-05T08:37:37.742Z,35.25
2022-11-05T08:40:04.971Z,35.70
2022-11-05T08:42:31.925Z,33.28
2022-11-05T08:44:58.890Z,29.45
2022-11-05T08:47:25.752Z,29.10
2022-11-05T08:49:52.993Z,34.00
2022-11-05T08:52:20.946Z,29.05
2022-11-05T08:54:47.894Z,31.30
2022-11-05T08:57:15.093Z,23.42
2022-11-05T08:59:41.913Z,25.38
2022-11-05T09:02:13.017Z,24.15
2022-11-05T09:04:40.240Z,24.33
2022-11-05T09:07:07.176Z,25.35
2022-11-05T09:09:34.088Z,22.13
2022-11-05T09:12:16.136Z,23.77
2022-11-05T09:14:43.001Z,24.83
2022-11-05T09:17:21.162Z,23.05
2022-11-05T09:19:48.648Z,21.38
2022-11-05T09:22:16.049Z,26.80
2022-11-05T09:24:43.747Z,23.13
2022-11-05T09:27:11.957Z,27.50
2022-11-05T09:29:39.437Z,22.58
2022-11-05T09:32:06.506Z,20.73
2022-11-05T09:34:33.675Z,22.48
2022-11-05T09:37:00.570Z,20.02
2022-11-05T09:39:27.811Z,15.70
2022-11-05T09:41:57.507Z,22.55
2022-11-05T09:44:37.530Z,21.77
2022-11-05T09:47:08.314Z,20.75
2022-11-05T09:49:41.671Z,17.98
2022-11-05T09:52:24.401Z,19.17
2022-11-05T09:54:51.621Z,16.15
2022-11-05T09:57:24.261Z,17.30
2022-11-05T09:59:53.616Z,19.38
2022-11-05T10:02:42.117Z,28.23
2022-11-05T10:05:12.196Z,18.10
2022-11-05T10:07:58.459Z,24.48
2022-11-05T10:10:34.137Z,16.58
2022-11-05T10:13:29.796Z,14.52
2022-11-05T10:16:12.393Z,15.38
2022-11-05T10:18:44.501Z,14.70
2022-11-05T10:21:32.348Z,14.87
2022-11-05T10:24:17.074Z,15.85
2022-11-05T10:26:47.807Z,16.85
2022-11-05T10:29:25.213Z,15.10
2022-11-05T10:31:53.737Z,15.80
2022-11-05T10:34:21.536Z,18.35
2022-11-05T10:36:48.729Z,12.98
2022-11-05T10:39:20.383Z,12.63
2022-11-05T10:42:09.093Z,14.07
2022-11-05T10:44:45.259Z,17.58
2022-11-05T10:47:30.023Z,13.48
2022-11-05T10:50:02.088Z,13.85
2022-11-05T10:52:33.419Z,19.55
2022-11-05T10:55:03.414Z,14.65
2022-11-05T10:57:38.890Z,17.83
2022-11-05T11:00:18.253Z,12.55
2022-11-05T11:02:51.331Z,15.95
2022-11-05T11:08:02.769Z,12.05
2022-11-05T11:10:33.068Z,13.07
2022-11-05T11:13:00.134Z,16.15
2022-11-05T11:15:35.167Z,12.13
2022-11-05T11:18:32.471Z,14.68
2022-11-05T11:21:12.457Z,14.63
2022-11-05T11:23:41.063Z,12.68
2022-11-05T11:26:09.210Z,24.17
2022-11-05T11:28:45.922Z,19.13
2022-11-05T11:31:55.454Z,16.20
2022-11-05T11:34:59.125Z,13.27
2022-11-05T11:37:34.599Z,18.15
2022-11-05T11:40:45.470Z,12.90
2022-11-05T11:43:39.391Z,12.55
2022-11-05T11:46:19.451Z,8.70
2022-11-05T11:48:48.819Z,11.00
2022-11-05T11:51:40.504Z,18.10
2022-11-05T11:54:20.775Z,10.98
2022-11-05T11:56:48.631Z,16.30
2022-11-05T11:59:53.741Z,14.00
2022-11-05T12:02:50.311Z,10.43
2022-11-05T12:05:51.750Z,11.57
2022-11-05T12:08:27.848Z,12.80
2022-11-05T12:11:19.773Z,11.32
2022-11-05T12:14:08.708Z,13.30
2022-11-05T12:17:07.465Z,9.45
2022-11-05T12:20:21.373Z,11.88
2022-11-05T12:23:06.626Z,13.98
2022-11-05T12:25:42.217Z,11.50
2022-11-05T12:29:12.285Z,17.33
2022-11-05T12:31:36.113Z,10.80
2022-11-05T12:34:34.051Z,15.55
2022-11-05T12:37:00.885Z,13.65
2022-11-05T12:39:27.668Z,13.25
2022-11-05T12:42:03.062Z,19.02
2022-11-05T12:44:44.984Z,13.38
2022-11-05T12:47:47.594Z,10.35
2022-11-05T12:50:29.950Z,17.38
2022-11-05T12:53:14.701Z,17.65
2022-11-05T12:55:48.349Z,15.20
2022-11-05T12:58:31.300Z,9.85
2022-11-05T13:01:05.707Z,15.40
2022-11-05T13:03:47.719Z,13.88
2022-11-05T13:06:39.698Z,15.07
2022-11-05T13:09:28.112Z,13.95
2022-11-05T13:11:59.085Z,11.95
2022-11-05T13:14:31.441Z,12.20
2022-11-05T13:17:11.781Z,11.48
2022-11-05T13:20:04.665Z,8.70
2022-11-05T13:22:44.774Z,11.60
2022-11-05T13:25:21.892Z,8.25
2022-11-05T13:28:27.865Z,10.52
2022-11-05T13:31:01.593Z,16.90
2022-11-05T13:33:37.323Z,8.35
2022-11-05T13:36:27.257Z,8.75
2022-11-05T13:39:15.914Z,12.73
2022-11-05T13:42:01.312Z,10.30
2022-11-05T13:44:31.321Z,8.77
2022-11-05T13:47:40.826Z,9.25
2022-11-05T13:50:26.271Z,12.88
2022-11-05T13:53:31.009Z,6.53
2022-11-05T13:56:33.716Z,9.27
2022-11-05T13:59:06.302Z,7.18
2022-11-05T14:01:38.323Z,8.68
2022-11-05T14:04:05.534Z,7.63
2022-11-05T14:06:35.646Z,10.82
2022-11-05T14:09:07.268Z,8.68
2022-11-05T14:11:37.115Z,10.88
2022-11-05T14:14:20.629Z,10.68
2022-11-05T14:16:51.744Z,8.68
2022-11-05T14:19:18.713Z,7.32
2022-11-05T14:21:56.844Z,13.13
2022-11-05T14:24:23.996Z,6.78
2022-11-05T14:27:02.894Z,6.45
2022-11-05T14:29:47.119Z,8.05
2022-11-05T14:32:25.595Z,7.68
2022-11-05T14:35:17.698Z,10.57
2022-11-05T14:37:58.050Z,4.75
2022-11-05T14:40:44.789Z,5.70
2022-11-05T14:43:14.685Z,7.85
2022-11-05T14:46:08.686Z,5.82
2022-11-05T14:49:27.560Z,7.35
2022-11-05T14:52:06.611Z,7.90
2022-11-05T14:54:42.787Z,4.88
2022-11-05T14:57:16.006Z,11.32
2022-11-05T15:00:01.104Z,6.57
2022-11-05T15:02:38.431Z,9.52
2022-11-05T15:05:35.751Z,9.73
2022-11-05T15:08:31.952Z,5.28
2022-11-05T15:11:17.354Z,6.30
2022-11-05T15:13:55.668Z,9.18
2022-11-05T15:16:40.792Z,7.55
2022-11-05T15:19:18.137Z,7.80
2022-11-05T15:21:45.975Z,9.73
2022-11-05T15:24:15.860Z,7.25
2022-11-05T15:27:00.481Z,6.93
2022-11-05T15:29:30.530Z,7.45
2022-11-05T15:31:58.880Z,6.53
2022-11-05T15:34:33.842Z,8.27
2022-11-05T15:37:11.080Z,7.15
2022-11-05T15:39:48.132Z,6.60
2022-11-05T15:42:17.496Z,8.65
2022-11-05T15:44:46.693Z,7.65
2022-11-05T15:47:20.079Z,6.32
2022-11-05T15:49:54.445Z,15.45
2022-11-05T15:52:24.949Z,10.32
2022-11-05T15:55:12.998Z,8.00
2022-11-05T15:57:50.408Z,6.70
2022-11-05T16:00:24.494Z,18.30
2022-11-05T16:03:05.133Z,10.25
2022-11-05T16:05:35.004Z,9.50
2022-11-05T16:08:05.298Z,8.30
2022-11-05T16:10:34.865Z,6.65
2022-11-05T16:13:29.142Z,7.88
2022-11-05T16:15:58.447Z,8.35
2022-11-05T16:18:32.029Z,6.78
2022-11-05T16:21:11.225Z,11.60
2022-11-05T16:23:53.114Z,5.45
2022-11-05T16:27:02.404Z,13.20
2022-11-05T16:29:36.301Z,13.90
2022-11-05T16:32:13.597Z,9.18
2022-11-05T16:34:51.344Z,12.50
2022-11-05T16:37:21.531Z,11.18
2022-11-05T16:39:48.524Z,14.23
2022-11-05T16:42:25.685Z,10.25
2022-11-05T16:44:55.051Z,10.23
2022-11-05T16:47:22.871Z,8.57
2022-11-05T16:49:49.862Z,10.50
2022-11-05T16:52:17.154Z,11.95
2022-11-05T16:54:44.297Z,11.63
2022-11-05T16:57:31.709Z,18.88
2022-11-05T17:00:00.459Z,18.85
2022-11-05T17:02:28.139Z,10.55
2022-11-05T17:04:55.266Z,10.95
2022-11-05T17:07:22.233Z,10.05
2022-11-05T17:09:49.180Z,11.52
2022-11-05T17:12:16.125Z,11.27
2022-11-05T17:14:43.039Z,10.55
2022-11-05T17:17:10.800Z,7.45
2022-11-05T17:19:42.345Z,6.82
2022-11-05T17:22:09.754Z,20.65
2022-11-05T17:24:36.814Z,5.65
2022-11-05T17:27:03.943Z,9.45
2022-11-05T17:29:31.031Z,13.65
2022-11-05T17:31:58.036Z,8.00
2022-11-05T17:34:24.901Z,9.60
2022-11-05T17:36:51.854Z,8.65
2022-11-05T17:39:18.746Z,9.10
2022-11-05T17:41:46.846Z,10.18
2022-11-05T17:44:13.752Z,10.90
2022-11-05T17:46:40.648Z,13.85
2022-11-05T17:49:07.600Z,12.38
2022-11-05T17:51:35.047Z,10.68
2022-11-05T17:54:05.247Z,8.77
2022-11-05T17:56:34.925Z,9.68
2022-11-05T17:59:04.167Z,6.82
2022-11-05T18:01:35.928Z,8.25
2022-11-05T18:04:08.715Z,11.73
2022-11-05T18:06:37.938Z,16.70
2022-11-05T18:09:06.283Z,9.35
2022-11-05T18:11:34.087Z,9.38
2022-11-05T18:14:03.301Z,18.60
2022-11-05T18:16:30.704Z,11.18
2022-11-05T18:18:57.648Z,8.48
2022-11-05T18:21:26.231Z,11.75
2022-11-05T18:23:56.185Z,9.52
2022-11-05T18:26:23.132Z,13.98
2022-11-05T18:28:50.039Z,7.40
2022-11-05T18:31:20.773Z,10.23
2022-11-05T18:33:49.107Z,13.07
2022-11-05T18:36:19.486Z,13.65
2022-11-05T18:38:47.628Z,10.27
2022-11-05T18:41:14.761Z,14.15
2022-11-05T18:43:42.020Z,11.05
2022-11-05T18:46:08.998Z,14.23
2022-11-05T18:48:36.308Z,10.13
2022-11-05T18:51:13.829Z,9.52
2022-11-05T18:53:43.673Z,7.43
2022-11-05T18:56:15.525Z,9.05
2022-11-05T18:58:42.845Z,10.00
2022-11-05T19:01:29.198Z,21.65
2022-11-05T19:03:57.252Z,11.43
2022-11-05T19:06:25.448Z,8.95
2022-11-05T19:08:52.525Z,11.98
2022-11-05T19:11:22.266Z,6.47
2022-11-05T19:13:49.523Z,11.88
2022-11-05T19:16:19.662Z,11.63
2022-11-05T19:18:46.919Z,10.95
2022-11-05T19:21:18.948Z,11.68
2022-11-05T19:23:46.096Z,17.70
2022-11-05T19:26:15.713Z,13.93
2022-11-05T19:28:45.616Z,11.48
2022-11-05T19:31:15.265Z,15.32
2022-11-05T19:33:43.256Z,11.88
2022-11-05T19:36:11.229Z,12.30
2022-11-05T19:38:38.834Z,9.88
2022-11-05T19:41:10.702Z,14.23
2022-11-05T19:43:39.259Z,10.75
2022-11-05T19:46:07.551Z,14.57
2022-11-05T19:48:34.680Z,10.77
2022-11-05T19:51:05.462Z,12.63
2022-11-05T19:53:35.434Z,17.88
2022-11-05T19:56:22.486Z,13.50
2022-11-05T19:58:50.405Z,20.20
2022-11-05T20:01:19.014Z,15.48
2022-11-05T20:03:46.401Z,15.18
2022-11-05T20:06:17.118Z,12.13
2022-11-05T20:09:07.193Z,13.23
2022-11-05T20:11:31.789Z,18.52
2022-11-05T20:13:58.931Z,16.95
2022-11-05T20:16:28.655Z,11.32
2022-11-05T20:18:56.942Z,12.40
2022-11-05T20:21:23.920Z,14.10
2022-11-05T20:23:51.264Z,10.40
2022-11-05T20:26:20.960Z,11.43
2022-11-05T20:28:47.888Z,12.93
2022-11-05T20:31:16.572Z,21.42
2022-11-05T20:33:44.996Z,14.68
2022-11-05T20:36:17.332Z,10.98
2022-11-05T20:38:51.275Z,12.05
2022-11-05T20:41:19.112Z,10.57
2022-11-05T20:43:48.067Z,17.05
2022-11-05T20:46:17.153Z,15.88
2022-11-05T20:48:44.428Z,14.20
2022-11-05T20:51:14.750Z,13.27
2022-11-05T20:53:41.958Z,14.05
2022-11-05T20:56:09.553Z,12.27
2022-11-05T20:58:39.612Z,16.27
2022-11-05T21:01:07.832Z,14.07
2022-11-05T21:03:35.141Z,16.48
2022-11-05T21:06:04.239Z,12.98
2022-11-05T21:08:32.134Z,13.35
2022-11-05T21:10:59.613Z,19.75
2022-11-05T21:13:27.027Z,11.48
2022-11-05T21:15:56.298Z,14.32
2022-11-05T21:18:25.513Z,14.73
2022-11-05T21:20:53.745Z,14.75
2022-11-05T21:23:20.927Z,16.08
2022-11-05T21:25:48.288Z,19.58
2022-11-05T21:28:16.327Z,21.35
2022-11-05T21:30:45.829Z,20.27
2022-11-05T21:33:14.218Z,18.92
2022-11-05T21:35:50.597Z,19.30
2022-11-05T21:38:18.344Z,19.48
2022-11-05T21:40:46.118Z,15.52
2022-11-05T21:43:13.819Z,21.90
2022-11-05T21:45:42.921Z,14.43
2022-11-05T21:48:10.949Z,16.15
2022-11-05T21:51:00.919Z,19.02
2022-11-05T21:53:46.904Z,14.52
2022-11-05T21:56:42.969Z,15.40
2022-11-05T21:59:41.212Z,17.63
2022-11-05T22:02:09.326Z,12.15
2022-11-05T22:04:38.425Z,17.83
2022-11-05T22:07:07.006Z,13.35
2022-11-05T22:09:34.244Z,16.00
2022-11-05T22:12:09.353Z,13.60
2022-11-05T22:14:36.617Z,17.23
2022-11-05T22:17:04.425Z,20.70
2022-11-05T22:19:31.684Z,10.90
2022-11-05T22:21:58.608Z,22.08
2022-11-05T22:24:25.838Z,12.98
2022-11-05T22:26:53.045Z,15.70
2022-11-05T22:29:20.005Z,12.77
2022-11-05T22:31:46.865Z,12.38
2022-11-05T22:34:20.492Z,17.73
2022-11-05T22:36:47.639Z,18.65
2022-11-05T22:39:16.232Z,23.95
2022-11-05T22:41:46.809Z,25.13
2022-11-05T22:44:14.406Z,20.13
2022-11-05T22:46:42.074Z,13.25
2022-11-05T22:49:15.493Z,21.67
2022-11-05T22:51:42.520Z,15.27
2022-11-05T22:54:09.885Z,14.57
2022-11-05T22:56:39.176Z,18.08
2022-11-05T22:59:07.768Z,16.10
2022-11-05T23:01:35.131Z,17.35
2022-11-05T23:04:02.253Z,15.65
2022-11-05T23:06:49.770Z,16.88
2022-11-05T23:09:37.038Z,18.35
2022-11-05T23:12:09.171Z,14.95
2022-11-05T23:14:36.910Z,15.88
2022-11-05T23:17:23.120Z,17.05
2022-11-05T23:20:08.476Z,15.00
2022-11-05T23:22:54.073Z,11.00
2022-11-05T23:25:22.663Z,18.25
2022-11-05T23:27:51.931Z,16.25
2022-11-05T23:30:21.868Z,15.00
2022-11-05T23:32:49.110Z,16.80
2022-11-05T23:35:45.711Z,16.20
2022-11-05T23:38:34.560Z,18.80
2022-11-05T23:41:21.011Z,15.68
2022-11-05T23:44:06.426Z,14.40
2022-11-05T23:46:52.149Z,17.80
2022-11-05T23:49:19.343Z,25.33
2022-11-05T23:51:46.922Z,17.25
2022-11-05T23:54:13.973Z,14.40
2022-11-05T23:56:40.803Z,20.10
2022-11-05T23:59:07.774Z,15.43
